メインページ
METAR-TAF:

METAR-TAF

空港 :

ケルマーンシャー, イラン

緯度: 34-16N, 経度: 047-07E, 海抜: 1320m

現時点の気象観測

当レポートは44分前の06:30(UTC)に作成
南東の風 12kt
気温 7°C
湿度 93%
気圧 1014 hPa
視程: 9000m
高度3500ftの雲はほとんどない, 積乱雲.
高度4000ftの雲は散在している
高度7000ftの曇り
小雨

METAR: OICC 240630Z 13012KT 9000 -RA FEW035CB SCT040 OVC070 07/06 Q1013 A2994 TEMPO RA

時間: 11:44 (07:14 UTC)


TAF: 見つかりません

4,000以上の空港の気象観測と天気予報(METAR報とTAF報)

利用可能な観測所は地図上に黄色い丸と赤い丸で示す。

丸の上にカーソルを重ねると観測所名を参照できる。

次にクリックすると気象観測と天気予報を参照できる。

マップの切り替え:黒色「×」印の緑ボタンをクリックして拡大、「-」印の緑ボタンをクリックして縮小、緑色の三角印をクリックして隣りの地図に切り替え


METAR-TAF: